Time;durP1;ratioP1;P1;durP2;ratioP2;P2;SDS_P1;SDS_P2;PMS_P1;PMS_P2;Temp;Humidity;BMP_temperature;BMP_pressure;BME280_temperature;BME280_humidity;BME280_pressure;Samples;Min_cycle;Max_cycle;Signal;HPM_P1;HPM_P2
2021/08/01 00:02:20;;;;;;;7.07;2.03;;;18.40;99.90;;;;;;5046228;28;20029;-93
2021/08/01 00:04:46;;;;;;;7.38;2.15;;;18.40;99.90;;;;;;5043145;28;20029;-93
2021/08/01 00:07:11;;;;;;;9.10;2.28;;;18.60;99.90;;;;;;5042440;28;20499;-94
2021/08/01 00:09:38;;;;;;;13.32;2.50;;;18.70;99.90;;;;;;5043912;28;20389;-94
2021/08/01 00:12:04;;;;;;;6.43;2.47;;;18.60;99.90;;;;;;5041611;28;20474;-94
2021/08/01 00:14:30;;;;;;;5.60;1.95;;;18.70;99.90;;;;;;5063192;28;20096;-94
2021/08/01 00:16:58;;;;;;;10.05;2.58;;;18.80;99.90;;;;;;5044243;28;20052;-94
2021/08/01 00:19:24;;;;;;;3.25;1.80;;;18.70;99.90;;;;;;5043446;28;20060;-94
2021/08/01 00:21:50;;;;;;;4.90;2.67;;;18.90;99.90;;;;;;5042051;28;20025;-93
2021/08/01 00:24:16;;;;;;;9.43;2.00;;;18.80;99.90;;;;;;5041917;28;20031;-94
2021/08/01 00:26:41;;;;;;;4.88;2.22;;;18.90;99.90;;;;;;5042054;28;20021;-94
2021/08/01 00:29:07;;;;;;;6.25;2.13;;;18.90;99.90;;;;;;5043037;28;20025;-94
2021/08/01 00:31:33;;;;;;;4.07;2.00;;;18.80;99.90;;;;;;5041877;28;20025;-94
2021/08/01 00:33:59;;;;;;;7.93;2.00;;;18.90;99.90;;;;;;5039884;28;20021;-94
2021/08/01 00:36:25;;;;;;;3.35;1.83;;;18.90;99.90;;;;;;5042601;28;20369;-93
2021/08/01 00:38:51;;;;;;;6.47;2.10;;;18.90;99.90;;;;;;5041705;28;20128;-93
2021/08/01 00:41:17;;;;;;;6.95;1.98;;;19.00;99.90;;;;;;5045137;28;20489;-93
2021/08/01 00:43:42;;;;;;;4.50;1.83;;;18.70;99.90;;;;;;5042188;28;20056;-94
2021/08/01 00:46:08;;;;;;;8.73;2.20;;;18.50;99.90;;;;;;5026222;28;20087;-94
2021/08/01 00:48:35;;;;;;;5.32;2.35;;;18.60;99.90;;;;;;5044611;28;20044;-94
2021/08/01 00:51:01;;;;;;;10.00;2.13;;;18.70;99.90;;;;;;5047596;28;20556;-94
2021/08/01 00:53:27;;;;;;;4.15;1.90;;;18.80;99.90;;;;;;5040854;28;20025;-95
2021/08/01 00:55:53;;;;;;;6.00;1.90;;;18.70;99.90;;;;;;5038812;28;20097;-94
2021/08/01 00:58:19;;;;;;;4.90;2.30;;;18.70;99.90;;;;;;5057600;28;20492;-94
2021/08/01 01:03:22;;;;;;;4.97;2.40;;;18.60;99.90;;;;;;5056654;28;20520;-94
2021/08/01 01:05:58;;;;;;;6.70;3.05;;;18.50;99.90;;;;;;5040263;28;20029;-95
2021/08/01 01:08:37;;;;;;;7.80;2.35;;;18.50;99.90;;;;;;5039600;28;20369;-94
2021/08/01 01:11:05;;;;;;;7.13;2.60;;;18.50;99.90;;;;;;5038694;28;20021;-93
2021/08/01 01:13:40;;;;;;;9.05;2.22;;;18.30;99.90;;;;;;5037392;28;20474;-94
2021/08/01 01:16:06;;;;;;;6.00;2.15;;;18.40;99.90;;;;;;5037442;28;20075;-95
2021/08/01 01:18:40;;;;;;;7.53;2.10;;;18.40;99.90;;;;;;5037451;28;20021;-94
2021/08/01 01:21:32;;;;;;;7.85;2.08;;;18.50;99.90;;;;;;5037565;28;20028;-94
2021/08/01 01:24:06;;;;;;;4.43;2.20;;;18.60;99.90;;;;;;5017243;28;20052;-94
2021/08/01 01:26:42;;;;;;;4.68;2.20;;;18.60;99.90;;;;;;5036949;28;20029;-95
2021/08/01 01:29:21;;;;;;;6.45;2.05;;;18.40;99.90;;;;;;5037595;28;20033;-95
2021/08/01 01:31:49;;;;;;;5.63;2.70;;;18.50;99.90;;;;;;5037924;28;20025;-94
2021/08/01 01:34:37;;;;;;;5.88;2.20;;;18.50;99.90;;;;;;5036952;28;20102;-93
2021/08/01 01:37:11;;;;;;;8.98;1.98;;;18.50;99.90;;;;;;5037381;28;20519;-93
2021/08/01 01:39:38;;;;;;;5.05;2.05;;;18.60;99.90;;;;;;5036467;28;20082;-95
2021/08/01 01:42:07;;;;;;;5.90;1.92;;;18.50;99.90;;;;;;5036721;28;20400;-94
2021/08/01 01:44:36;;;;;;;7.68;2.13;;;18.60;99.90;;;;;;5037228;28;20075;-94
2021/08/01 01:47:03;;;;;;;7.50;2.10;;;18.60;99.90;;;;;;5040336;28;20456;-93
2021/08/01 01:49:29;;;;;;;7.00;1.80;;;18.60;99.90;;;;;;5040579;28;20103;-94
2021/08/01 01:51:56;;;;;;;9.82;2.05;;;18.70;99.90;;;;;;5040591;28;20091;-94
2021/08/01 01:54:22;;;;;;;6.97;2.00;;;18.60;99.90;;;;;;5040446;28;20056;-94
2021/08/01 01:56:49;;;;;;;7.72;2.10;;;18.50;99.90;;;;;;5046482;28;20457;-95
2021/08/01 01:59:16;;;;;;;4.22;2.17;;;18.50;99.90;;;;;;5050475;28;20071;-94
2021/08/01 02:01:42;;;;;;;3.78;1.80;;;18.40;99.90;;;;;;5054342;28;20088;-93
2021/08/01 02:04:08;;;;;;;4.03;1.80;;;18.50;99.90;;;;;;5059747;28;20074;-93
2021/08/01 02:06:34;;;;;;;5.68;2.10;;;18.50;99.90;;;;;;5047874;28;20032;-94
2021/08/01 02:09:21;;;;;;;6.47;2.20;;;18.60;99.90;;;;;;5040846;28;20033;-94
2021/08/01 02:12:18;;;;;;;3.53;1.95;;;18.50;99.90;;;;;;5041137;28;20029;-93
2021/08/01 02:14:57;;;;;;;4.72;1.98;;;18.50;99.90;;;;;;5006511;28;20040;-95
2021/08/01 02:17:40;;;;;;;5.72;2.22;;;18.50;99.90;;;;;;5039979;28;20025;-94
2021/08/01 02:20:08;;;;;;;6.28;2.30;;;18.30;99.90;;;;;;5040281;28;20116;-93
2021/08/01 02:22:35;;;;;;;6.38;2.28;;;18.20;99.90;;;;;;5039808;28;20025;-94
2021/08/01 02:25:01;;;;;;;3.90;2.10;;;18.00;99.90;;;;;;5039722;28;20025;-94
2021/08/01 02:27:33;;;;;;;7.82;2.30;;;17.90;99.90;;;;;;5039656;28;20484;-93
2021/08/01 02:30:01;;;;;;;7.25;2.15;;;18.00;99.90;;;;;;5039659;28;20392;-93
2021/08/01 02:32:28;;;;;;;8.93;2.50;;;17.90;99.90;;;;;;5039482;28;20055;-94
2021/08/01 02:34:55;;;;;;;6.38;2.30;;;17.80;99.90;;;;;;5039699;28;20017;-94
2021/08/01 02:37:23;;;;;;;6.13;2.58;;;17.80;99.90;;;;;;5039478;28;20438;-94
2021/08/01 02:39:50;;;;;;;7.25;2.20;;;17.80;99.90;;;;;;5038782;28;20082;-94
2021/08/01 02:42:17;;;;;;;10.98;2.05;;;17.80;99.90;;;;;;5038274;28;20024;-94
2021/08/01 02:44:45;;;;;;;7.05;2.33;;;17.70;99.90;;;;;;5039007;28;20461;-93
2021/08/01 02:47:16;;;;;;;8.63;2.75;;;18.00;99.90;;;;;;5038240;28;20052;-93
2021/08/01 02:49:44;;;;;;;5.18;2.05;;;17.90;99.90;;;;;;5038304;28;20021;-93
2021/08/01 02:52:20;;;;;;;6.07;2.40;;;18.00;99.90;;;;;;5038125;28;20021;-92
2021/08/01 02:54:49;;;;;;;8.27;2.20;;;17.90;99.90;;;;;;5038056;28;20060;-92
2021/08/01 02:57:16;;;;;;;7.38;2.35;;;17.80;99.90;;;;;;5037545;28;20044;-93
2021/08/01 02:59:44;;;;;;;8.25;2.28;;;17.80;99.90;;;;;;5038207;28;20040;-94
2021/08/01 03:02:11;;;;;;;7.72;2.00;;;17.70;99.90;;;;;;5038137;28;20133;-94
2021/08/01 03:04:39;;;;;;;6.68;2.40;;;17.70;99.90;;;;;;5038036;28;20037;-93
2021/08/01 03:07:12;;;;;;;3.80;2.33;;;17.80;99.90;;;;;;5037685;28;20025;-92
2021/08/01 03:09:38;;;;;;;4.90;2.03;;;17.70;99.90;;;;;;5038189;28;20017;-93
2021/08/01 03:12:15;;;;;;;5.13;2.28;;;17.70;99.90;;;;;;5037717;28;20074;-93
2021/08/01 03:14:41;;;;;;;6.00;2.33;;;17.50;99.90;;;;;;5037942;28;20025;-94
2021/08/01 03:17:07;;;;;;;5.97;2.50;;;17.50;99.90;;;;;;5037968;28;20029;-94
2021/08/01 03:19:35;;;;;;;8.45;2.65;;;17.70;99.90;;;;;;5038509;28;20032;-94
2021/08/01 03:22:01;;;;;;;3.85;2.35;;;17.50;99.90;;;;;;5038567;28;20162;-94
2021/08/01 03:24:26;;;;;;;8.63;2.58;;;17.40;99.90;;;;;;5038020;28;20492;-92
2021/08/01 03:26:52;;;;;;;8.52;2.20;;;17.40;99.90;;;;;;5037805;28;20388;-93
2021/08/01 03:29:18;;;;;;;5.82;2.58;;;17.50;99.90;;;;;;5039038;28;20060;-94
2021/08/01 03:31:43;;;;;;;4.50;2.10;;;17.40;99.90;;;;;;5039057;28;20032;-93
2021/08/01 03:34:09;;;;;;;7.75;2.13;;;17.60;99.90;;;;;;5039999;28;20025;-94
2021/08/01 03:36:35;;;;;;;4.75;2.22;;;17.50;99.90;;;;;;5039010;28;20021;-94
2021/08/01 03:39:02;;;;;;;4.93;2.00;;;17.60;99.90;;;;;;4995290;28;1230698;-93
2021/08/01 03:41:29;;;;;;;3.33;2.08;;;17.70;99.90;;;;;;5039891;28;20231;-93
2021/08/01 03:43:54;;;;;;;5.50;2.05;;;17.90;99.90;;;;;;5039723;28;20035;-93
2021/08/01 03:46:20;;;;;;;11.48;2.53;;;18.20;99.90;;;;;;5040204;28;20025;-94
2021/08/01 03:48:46;;;;;;;5.70;2.65;;;17.90;99.90;;;;;;5040041;28;20028;-92
2021/08/01 03:51:12;;;;;;;5.50;2.25;;;17.70;99.90;;;;;;5038737;28;20048;-93
2021/08/01 03:53:37;;;;;;;7.90;2.38;;;17.70;99.90;;;;;;5038853;28;20021;-93
2021/08/01 03:56:04;;;;;;;4.47;2.13;;;18.00;99.90;;;;;;5038678;28;20028;-93
2021/08/01 03:58:30;;;;;;;6.05;2.10;;;18.10;99.90;;;;;;5038130;28;20029;-93
2021/08/01 04:00:56;;;;;;;6.00;2.50;;;18.10;99.90;;;;;;5037839;28;20033;-92
2021/08/01 04:03:22;;;;;;;3.92;2.30;;;18.00;99.90;;;;;;5038019;28;20040;-92
2021/08/01 04:05:47;;;;;;;9.60;2.85;;;18.00;99.90;;;;;;5037864;28;20461;-93
2021/08/01 04:08:13;;;;;;;8.38;2.53;;;18.10;99.90;;;;;;5038234;28;20388;-92
2021/08/01 04:10:39;;;;;;;7.15;2.58;;;18.00;99.90;;;;;;5038844;28;20017;-93
2021/08/01 04:13:05;;;;;;;7.43;2.42;;;17.90;99.90;;;;;;5050856;28;20084;-92
2021/08/01 04:15:31;;;;;;;7.70;2.35;;;18.00;99.90;;;;;;5061772;28;20016;-93
2021/08/01 04:17:57;;;;;;;10.07;2.10;;;18.10;99.90;;;;;;5048561;28;20029;-92
2021/08/01 04:20:23;;;;;;;3.85;2.20;;;18.00;99.90;;;;;;5038816;28;20086;-91
2021/08/01 04:22:53;;;;;;;4.18;2.10;;;18.20;99.90;;;;;;5037750;28;20111;-92
2021/08/01 04:25:20;;;;;;;5.20;2.13;;;18.00;99.90;;;;;;5037378;28;20018;-93
2021/08/01 04:27:45;;;;;;;7.80;2.30;;;18.00;99.90;;;;;;5037243;28;20035;-92
2021/08/01 04:30:11;;;;;;;5.55;2.15;;;18.00;99.90;;;;;;5037223;28;20468;-92
2021/08/01 04:32:37;;;;;;;8.73;2.20;;;18.20;99.90;;;;;;5037243;28;20427;-92
2021/08/01 04:35:04;;;;;;;5.20;2.17;;;18.10;99.90;;;;;;5037015;28;20488;-93
2021/08/01 04:37:30;;;;;;;3.85;1.90;;;18.00;99.90;;;;;;5037161;28;20548;-93
2021/08/01 04:39:56;;;;;;;6.97;2.20;;;18.20;99.90;;;;;;5037145;28;20076;-92
2021/08/01 04:42:22;;;;;;;5.85;2.53;;;18.10;99.90;;;;;;5036980;28;20120;-92
2021/08/01 04:44:47;;;;;;;3.72;1.95;;;18.10;99.90;;;;;;5037057;28;20033;-92
2021/08/01 04:47:14;;;;;;;7.35;2.47;;;18.10;99.90;;;;;;5037330;28;20060;-92
2021/08/01 04:49:41;;;;;;;7.03;2.17;;;17.90;99.90;;;;;;5037247;28;20481;-92
2021/08/01 04:52:07;;;;;;;4.78;2.10;;;18.00;99.90;;;;;;5036722;28;20052;-91
2021/08/01 04:54:36;;;;;;;8.15;2.40;;;18.00;99.90;;;;;;5037091;28;20021;-93
2021/08/01 04:57:02;;;;;;;7.50;2.25;;;18.00;99.90;;;;;;5037630;28;20017;-93
2021/08/01 04:59:28;;;;;;;4.68;2.20;;;17.80;99.90;;;;;;5036660;28;20444;-93
2021/08/01 05:01:54;;;;;;;8.18;2.08;;;17.70;99.90;;;;;;5036665;28;20061;-93
2021/08/01 05:04:19;;;;;;;3.88;1.75;;;17.60;99.90;;;;;;5036766;28;20092;-92
2021/08/01 05:06:45;;;;;;;6.90;2.13;;;17.40;99.90;;;;;;5036542;28;20025;-93
2021/08/01 05:09:11;;;;;;;8.40;2.30;;;17.60;99.90;;;;;;5036555;28;20029;-93
2021/08/01 05:11:37;;;;;;;2.65;1.70;;;17.70;99.90;;;;;;5036612;28;20027;-92
2021/08/01 05:14:03;;;;;;;2.25;1.80;;;17.70;99.90;;;;;;5036543;28;20020;-93
2021/08/01 05:16:29;;;;;;;2.80;1.83;;;17.80;99.90;;;;;;5037288;28;20029;-93
2021/08/01 05:18:54;;;;;;;5.55;1.90;;;17.70;99.90;;;;;;5036590;28;20104;-93
2021/08/01 05:21:21;;;;;;;5.50;2.05;;;17.70;99.90;;;;;;5036432;28;20025;-93
2021/08/01 05:23:47;;;;;;;5.68;1.83;;;17.90;99.90;;;;;;5036565;28;20548;-93
2021/08/01 05:26:13;;;;;;;4.00;1.92;;;17.80;99.90;;;;;;5036506;28;20060;-93
2021/08/01 05:28:38;;;;;;;4.38;2.30;;;17.80;99.90;;;;;;5036671;28;20029;-93
2021/08/01 05:31:04;;;;;;;5.90;2.47;;;17.80;99.90;;;;;;5036471;28;20021;-92
2021/08/01 05:33:30;;;;;;;5.60;1.85;;;17.80;99.90;;;;;;5036576;28;20498;-94
2021/08/01 05:35:55;;;;;;;4.93;1.88;;;17.90;99.90;;;;;;5037217;28;20143;-94
2021/08/01 05:38:21;;;;;;;4.90;1.77;;;17.90;99.90;;;;;;5033652;28;20053;-92
2021/08/01 05:40:47;;;;;;;4.22;1.60;;;18.20;99.90;;;;;;5016583;28;20477;-94
2021/08/01 05:43:12;;;;;;;4.05;1.88;;;18.30;99.90;;;;;;5016673;28;20033;-95
2021/08/01 05:45:38;;;;;;;3.33;1.80;;;18.20;99.90;;;;;;5017079;28;20068;-94
2021/08/01 05:48:04;;;;;;;4.40;1.70;;;18.20;99.90;;;;;;5016616;28;20022;-92
2021/08/01 05:50:30;;;;;;;4.43;1.80;;;18.30;99.90;;;;;;5016344;28;20025;-92
2021/08/01 05:52:56;;;;;;;5.03;1.67;;;18.40;99.90;;;;;;5016549;28;20025;-94
2021/08/01 05:55:21;;;;;;;3.00;1.88;;;18.30;99.90;;;;;;5016476;28;20030;-93
2021/08/01 05:57:47;;;;;;;2.75;1.60;;;18.20;99.90;;;;;;5016301;28;20036;-92
2021/08/01 06:00:14;;;;;;;3.92;2.10;;;18.30;99.90;;;;;;5016282;28;20027;-93
2021/08/01 06:02:39;;;;;;;5.00;2.15;;;18.00;99.90;;;;;;5016231;28;20021;-93
2021/08/01 06:05:05;;;;;;;5.97;1.85;;;17.90;99.90;;;;;;5016852;28;20030;-93
2021/08/01 06:07:31;;;;;;;3.05;1.90;;;17.90;99.90;;;;;;5016295;28;20542;-94
2021/08/01 06:09:57;;;;;;;8.88;2.10;;;17.70;99.90;;;;;;5016254;28;20481;-94
2021/08/01 06:12:23;;;;;;;5.57;1.90;;;17.70;99.90;;;;;;5017089;28;20501;-93
2021/08/01 06:14:49;;;;;;;5.88;1.77;;;17.60;99.90;;;;;;5016155;28;20112;-93
2021/08/01 06:17:15;;;;;;;3.13;1.92;;;17.70;99.90;;;;;;5016854;28;20026;-93
2021/08/01 06:19:41;;;;;;;4.50;2.08;;;17.70;99.90;;;;;;5019226;28;20029;-94
2021/08/01 06:22:07;;;;;;;5.30;2.00;;;18.00;99.90;;;;;;5017560;28;20025;-93
2021/08/01 06:24:33;;;;;;;6.70;2.33;;;18.10;99.90;;;;;;5038127;28;20068;-94
2021/08/01 06:26:58;;;;;;;5.00;2.20;;;18.30;99.90;;;;;;5039072;28;20026;-93
2021/08/01 06:29:24;;;;;;;5.63;2.10;;;18.30;99.90;;;;;;5017756;28;20030;-93
2021/08/01 06:31:50;;;;;;;3.33;1.70;;;18.30;99.90;;;;;;5018069;28;20022;-93
2021/08/01 06:34:16;;;;;;;6.00;1.63;;;18.40;99.90;;;;;;5019917;28;20021;-92
2021/08/01 06:36:41;;;;;;;4.15;1.85;;;18.50;99.90;;;;;;5019865;28;20021;-93
2021/08/01 06:39:10;;;;;;;5.38;1.90;;;18.50;99.90;;;;;;5029128;28;20139;-93
2021/08/01 06:41:36;;;;;;;3.65;1.83;;;18.60;99.90;;;;;;5039548;28;20145;-93
2021/08/01 06:44:02;;;;;;;3.88;1.77;;;18.80;99.90;;;;;;5040046;28;20021;-94
2021/08/01 06:46:28;;;;;;;9.23;2.22;;;18.80;99.90;;;;;;5039208;28;20021;-93
2021/08/01 06:48:53;;;;;;;4.82;2.00;;;18.70;99.90;;;;;;5039274;28;20040;-93
2021/08/01 06:51:19;;;;;;;4.07;1.95;;;18.70;99.90;;;;;;5039154;28;20017;-92
2021/08/01 06:53:45;;;;;;;5.43;2.15;;;18.80;99.90;;;;;;5043087;28;20024;-91
2021/08/01 06:56:11;;;;;;;4.78;1.80;;;18.70;99.90;;;;;;5041402;28;20555;-91
2021/08/01 06:58:36;;;;;;;5.22;1.80;;;18.80;99.90;;;;;;5042090;28;20043;-92
2021/08/01 07:01:03;;;;;;;7.82;1.98;;;18.70;99.90;;;;;;5041702;28;20399;-91
2021/08/01 07:03:28;;;;;;;6.75;1.95;;;18.80;99.90;;;;;;5042277;28;20025;-92
2021/08/01 07:05:55;;;;;;;4.45;2.17;;;18.80;99.90;;;;;;5042258;28;20021;-92
2021/08/01 07:08:20;;;;;;;5.93;1.98;;;19.00;99.90;;;;;;5041810;28;20028;-92
2021/08/01 07:10:46;;;;;;;2.45;1.70;;;19.00;99.90;;;;;;5042191;28;20025;-92
2021/08/01 07:13:12;;;;;;;4.07;1.88;;;19.00;99.90;;;;;;5041412;28;20025;-93
2021/08/01 07:15:38;;;;;;;3.72;1.85;;;19.00;99.90;;;;;;5042645;28;20482;-93
2021/08/01 07:18:05;;;;;;;3.25;2.03;;;19.00;99.90;;;;;;5042653;28;20376;-92
2021/08/01 07:20:31;;;;;;;6.07;2.33;;;18.90;99.90;;;;;;5041844;28;20098;-91
2021/08/01 07:22:57;;;;;;;5.05;1.88;;;18.90;99.90;;;;;;5043213;28;20029;-93
2021/08/01 07:25:24;;;;;;;9.27;2.20;;;18.90;99.90;;;;;;5041902;28;20036;-92
2021/08/01 07:27:51;;;;;;;7.63;1.95;;;18.90;99.90;;;;;;5041528;28;20032;-91
2021/08/01 07:30:17;;;;;;;2.70;1.63;;;18.90;99.90;;;;;;5041072;28;20020;-92
2021/08/01 07:32:43;;;;;;;4.72;2.10;;;18.90;99.90;;;;;;5041151;28;20033;-92
2021/08/01 07:35:09;;;;;;;4.60;1.80;;;18.90;99.90;;;;;;5040845;28;20108;-92
2021/08/01 07:37:36;;;;;;;4.93;1.95;;;18.70;99.90;;;;;;5042020;28;20146;-92
2021/08/01 07:40:02;;;;;;;2.95;1.75;;;18.70;99.90;;;;;;5041303;28;20049;-92
2021/08/01 07:42:28;;;;;;;4.25;1.95;;;18.70;99.90;;;;;;5040515;28;20032;-92
2021/08/01 07:45:01;;;;;;;3.83;1.92;;;18.70;99.90;;;;;;5040216;28;20392;-92
2021/08/01 07:47:27;;;;;;;6.28;2.00;;;18.70;99.90;;;;;;5059355;28;20476;-92
2021/08/01 07:49:53;;;;;;;3.63;2.13;;;18.60;99.90;;;;;;5042440;28;20025;-92
2021/08/01 07:52:20;;;;;;;3.75;1.67;;;18.60;99.90;;;;;;5046269;28;20033;-92
2021/08/01 07:54:47;;;;;;;5.00;2.00;;;18.70;99.90;;;;;;5043856;28;20096;-93
2021/08/01 07:57:32;;;;;;;3.75;1.70;;;18.80;99.90;;;;;;5044823;28;20021;-92
2021/08/01 08:00:01;;;;;;;3.70;1.80;;;18.70;99.90;;;;;;5043927;28;20021;-91
2021/08/01 08:02:26;;;;;;;2.38;1.90;;;18.70;99.90;;;;;;5042277;28;20021;-91
2021/08/01 08:04:52;;;;;;;3.67;1.85;;;18.60;99.90;;;;;;5040607;28;20369;-92
2021/08/01 08:07:19;;;;;;;3.97;1.98;;;18.50;99.90;;;;;;5040356;28;20366;-93
2021/08/01 08:09:44;;;;;;;4.07;1.75;;;18.40;99.90;;;;;;5039245;28;20021;-87
2021/08/01 08:12:10;;;;;;;4.75;1.98;;;18.30;99.90;;;;;;5058074;28;20104;-93
2021/08/01 08:14:36;;;;;;;3.25;1.95;;;18.50;99.90;;;;;;5040733;28;20025;-93
2021/08/01 08:17:03;;;;;;;4.30;2.00;;;18.40;99.90;;;;;;5040097;28;20025;-92
2021/08/01 08:19:29;;;;;;;2.70;1.83;;;18.30;99.90;;;;;;5040757;28;20029;-92
2021/08/01 08:21:56;;;;;;;3.45;2.00;;;18.30;99.90;;;;;;5040790;28;20542;-92
2021/08/01 08:24:22;;;;;;;3.35;2.10;;;18.30;99.90;;;;;;5040027;28;20040;-92
2021/08/01 08:26:48;;;;;;;5.25;2.08;;;18.40;99.90;;;;;;5039533;28;20029;-92
2021/08/01 08:29:15;;;;;;;4.25;2.10;;;18.50;99.90;;;;;;5057596;28;20048;-92
2021/08/01 08:31:41;;;;;;;2.63;1.65;;;18.40;99.90;;;;;;5039751;28;20380;-92
2021/08/01 08:34:07;;;;;;;3.45;1.83;;;18.40;99.90;;;;;;5055657;28;20036;-92
2021/08/01 08:36:32;;;;;;;6.32;2.05;;;18.30;99.90;;;;;;5078303;28;20013;-91
2021/08/01 08:38:58;;;;;;;4.57;2.00;;;18.20;99.90;;;;;;5044604;28;20049;-91
2021/08/01 08:41:25;;;;;;;4.35;1.70;;;18.20;99.90;;;;;;5041055;28;20035;-92
2021/08/01 08:43:51;;;;;;;2.78;1.88;;;18.20;99.90;;;;;;5041819;28;20021;-93
2021/08/01 08:46:19;;;;;;;4.30;2.10;;;18.20;99.90;;;;;;5058128;28;20047;-92
2021/08/01 08:48:45;;;;;;;3.20;1.80;;;18.20;99.90;;;;;;5039836;28;20029;-92
2021/08/01 08:51:11;;;;;;;2.70;1.70;;;18.00;99.90;;;;;;5057020;28;20028;-92
2021/08/01 08:53:47;;;;;;;3.33;1.85;;;18.10;99.90;;;;;;5057481;28;20048;-92
2021/08/01 08:56:14;;;;;;;3.13;1.60;;;18.00;99.90;;;;;;5039661;28;20074;-92
2021/08/01 08:58:42;;;;;;;4.18;1.58;;;18.10;99.90;;;;;;5040042;28;20032;-92
2021/08/01 09:01:08;;;;;;;6.40;2.40;;;18.00;99.90;;;;;;5038983;28;20028;-92
2021/08/01 09:03:34;;;;;;;4.45;1.85;;;18.00;99.90;;;;;;5039782;28;20025;-92
2021/08/01 09:06:00;;;;;;;4.07;2.03;;;17.90;99.90;;;;;;5039603;28;20059;-92
2021/08/01 09:08:27;;;;;;;5.53;2.08;;;17.80;99.90;;;;;;5039589;28;20033;-93
2021/08/01 09:10:55;;;;;;;4.53;2.30;;;17.70;99.90;;;;;;5038851;28;20032;-92
2021/08/01 09:13:43;;;;;;;6.00;2.00;;;17.60;99.90;;;;;;5039618;28;20001;-92
2021/08/01 09:16:09;;;;;;;6.68;2.33;;;17.70;99.90;;;;;;5038681;28;20024;-92
2021/08/01 09:18:35;;;;;;;4.75;2.03;;;17.90;99.90;;;;;;5040009;28;20025;-92
2021/08/01 09:21:00;;;;;;;4.47;1.90;;;18.10;99.90;;;;;;5039969;28;20110;-93
2021/08/01 09:23:26;;;;;;;2.72;2.00;;;18.10;99.90;;;;;;5038911;28;20047;-93
2021/08/01 09:26:00;;;;;;;5.43;2.40;;;18.20;99.90;;;;;;5039788;28;20024;-92
2021/08/01 09:28:27;;;;;;;4.30;2.30;;;18.40;99.90;;;;;;5039008;28;20021;-92
2021/08/01 09:31:00;;;;;;;4.40;2.00;;;18.40;99.90;;;;;;5057047;28;20049;-92
2021/08/01 09:33:44;;;;;;;3.40;1.88;;;18.60;99.90;;;;;;5039700;28;20200;-93
2021/08/01 09:36:21;;;;;;;4.25;2.20;;;18.70;99.90;;;;;;5039500;28;20025;-92
2021/08/01 09:38:55;;;;;;;2.25;2.03;;;18.50;99.90;;;;;;5039590;28;20071;-91
2021/08/01 09:41:24;;;;;;;3.30;2.08;;;18.50;99.90;;;;;;5039296;28;20067;-93
2021/08/01 09:44:00;;;;;;;2.85;1.80;;;18.50;99.90;;;;;;5038957;28;20025;-93
2021/08/01 09:46:41;;;;;;;6.05;2.05;;;18.60;99.90;;;;;;5038131;28;20029;-92
2021/08/01 09:49:15;;;;;;;5.75;2.60;;;18.70;99.90;;;;;;5056488;28;20038;-92
2021/08/01 09:51:45;;;;;;;6.00;2.30;;;18.60;99.90;;;;;;5039105;28;20093;-93
2021/08/01 09:54:12;;;;;;;3.45;2.55;;;18.70;99.90;;;;;;5039287;28;20026;-93
2021/08/01 09:56:39;;;;;;;5.28;2.08;;;18.90;99.90;;;;;;5038623;28;20021;-92
2021/08/01 09:59:19;;;;;;;6.72;2.50;;;19.10;99.90;;;;;;5038799;28;20029;-92
2021/08/01 10:02:08;;;;;;;8.45;2.50;;;19.20;99.90;;;;;;5038966;28;20120;-92
2021/08/01 10:04:38;;;;;;;5.82;2.70;;;19.30;99.90;;;;;;5038950;28;20065;-93
2021/08/01 10:07:07;;;;;;;7.13;2.80;;;19.40;99.90;;;;;;5040784;28;20025;-92
2021/08/01 10:09:51;;;;;;;8.77;2.95;;;19.20;99.90;;;;;;5041979;28;20078;-93
2021/08/01 10:12:19;;;;;;;12.00;3.30;;;19.20;99.90;;;;;;5043098;28;20507;-92
2021/08/01 10:14:45;;;;;;;3.47;2.58;;;19.30;99.90;;;;;;5042139;28;20031;-92
2021/08/01 10:17:11;;;;;;;4.90;2.60;;;19.40;99.90;;;;;;5043431;28;20119;-92
2021/08/01 10:19:36;;;;;;;5.00;2.63;;;19.30;99.90;;;;;;5042980;28;20511;-92
2021/08/01 10:22:04;;;;;;;6.10;2.63;;;19.40;99.90;;;;;;5042435;28;20028;-92
2021/08/01 10:24:44;;;;;;;6.45;2.45;;;19.40;99.90;;;;;;5042280;28;20029;-93
2021/08/01 10:27:11;;;;;;;7.28;2.72;;;19.40;99.90;;;;;;5041923;28;20032;-93
2021/08/01 10:29:46;;;;;;;5.90;2.78;;;19.50;99.90;;;;;;5042629;28;20035;-93
2021/08/01 10:32:13;;;;;;;7.13;2.15;;;19.60;99.90;;;;;;5042486;28;20025;-93
2021/08/01 10:35:06;;;;;;;6.22;2.38;;;19.80;99.90;;;;;;5042019;28;20021;-93
2021/08/01 10:37:44;;;;;;;6.95;2.50;;;20.10;99.90;;;;;;5060403;28;20016;-93
2021/08/01 10:40:15;;;;;;;6.82;2.53;;;20.40;99.90;;;;;;5047099;28;20484;-92
2021/08/01 10:42:44;;;;;;;7.88;2.45;;;20.40;99.90;;;;;;5050753;28;20399;-94
2021/08/01 10:45:11;;;;;;;5.65;2.55;;;20.50;99.90;;;;;;5078119;28;20021;-92
2021/08/01 10:47:42;;;;;;;4.15;2.90;;;20.50;99.90;;;;;;5058280;28;20037;-93
2021/08/01 10:50:09;;;;;;;7.45;4.55;;;20.30;99.90;;;;;;5044081;28;20021;-92
2021/08/01 10:52:35;;;;;;;5.45;2.35;;;20.30;99.90;;;;;;5044693;28;20049;-94
2021/08/01 10:55:05;;;;;;;10.27;4.43;;;20.40;99.90;;;;;;5044133;28;20480;-93
2021/08/01 10:57:31;;;;;;;19.08;11.75;;;20.50;99.90;;;;;;5043036;28;20021;-93
2021/08/01 10:59:57;;;;;;;6.93;3.90;;;20.80;99.90;;;;;;5042416;28;20028;-93
2021/08/01 11:02:27;;;;;;;7.07;3.42;;;20.50;99.90;;;;;;5043222;28;20033;-92
2021/08/01 11:04:54;;;;;;;9.05;5.20;;;20.60;99.90;;;;;;5042640;28;20033;-93
2021/08/01 11:07:28;;;;;;;11.27;5.13;;;20.80;99.90;;;;;;5042215;28;20418;-93
2021/08/01 11:10:07;;;;;;;7.20;2.60;;;20.90;99.90;;;;;;5042071;28;20029;-92
2021/08/01 11:12:35;;;;;;;6.60;2.15;;;20.90;99.90;;;;;;5043094;28;20029;-93
2021/08/01 11:15:02;;;;;;;4.22;2.40;;;21.00;99.90;;;;;;5042520;28;20025;-93
2021/08/01 11:17:46;;;;;;;6.38;2.40;;;20.90;99.90;;;;;;5061165;28;20025;-93
2021/08/01 11:20:24;;;;;;;7.97;2.63;;;20.90;99.90;;;;;;5043527;28;20037;-93
2021/08/01 11:22:51;;;;;;;9.98;2.42;;;21.10;99.90;;;;;;5045822;28;20049;-93
2021/08/01 11:26:05;;;;;;;6.10;2.03;;;21.30;99.90;;;;;;5042878;28;20017;-93
2021/08/01 11:28:34;;;;;;;3.93;2.20;;;21.40;99.90;;;;;;5011481;28;20044;-94
2021/08/01 11:31:01;;;;;;;4.93;2.30;;;21.90;99.90;;;;;;5042431;28;20025;-93
2021/08/01 11:33:34;;;;;;;5.25;2.08;;;21.90;99.90;;;;;;5045229;28;20036;-94
2021/08/01 11:36:12;;;;;;;6.95;2.15;;;22.10;99.90;;;;;;5044549;28;20021;-94
2021/08/01 11:38:38;;;;;;;7.10;2.00;;;22.20;99.90;;;;;;5043725;28;20123;-94
2021/08/01 11:41:05;;;;;;;5.60;2.35;;;22.10;99.90;;;;;;5045856;28;20009;-94
2021/08/01 11:43:32;;;;;;;4.72;2.00;;;22.00;99.90;;;;;;5045290;28;20452;-92
2021/08/01 11:46:03;;;;;;;3.38;1.83;;;22.00;99.90;;;;;;5043727;28;20021;-92
2021/08/01 11:48:29;;;;;;;7.43;2.35;;;21.50;99.90;;;;;;5044748;28;20032;-94
2021/08/01 11:51:04;;;;;;;6.18;2.00;;;21.30;99.90;;;;;;5042727;28;20021;-94
2021/08/01 11:53:30;;;;;;;10.50;2.47;;;21.10;99.90;;;;;;5028849;28;20453;-92
2021/08/01 11:56:00;;;;;;;4.55;1.88;;;21.10;99.90;;;;;;5043756;28;20035;-93
2021/08/01 11:58:30;;;;;;;5.80;2.00;;;21.10;99.90;;;;;;5063873;28;20052;-93
2021/08/01 12:00:58;;;;;;;6.82;2.10;;;21.20;99.90;;;;;;5044952;28;20021;-95
2021/08/01 12:03:28;;;;;;;4.38;1.63;;;21.30;99.90;;;;;;5045731;28;20024;-94
2021/08/01 12:05:57;;;;;;;8.25;1.98;;;21.40;99.90;;;;;;5044635;28;20021;-93
2021/08/01 12:08:36;;;;;;;2.47;1.60;;;22.00;99.90;;;;;;5042103;28;20028;-94
2021/08/01 12:11:16;;;;;;;2.95;1.42;;;23.30;99.90;;;;;;5041381;28;20078;-94
2021/08/01 12:14:03;;;;;;;3.17;1.67;;;24.60;99.90;;;;;;5041041;28;20017;-94
2021/08/01 12:16:29;;;;;;;3.17;1.70;;;24.00;99.90;;;;;;5058775;28;20028;-93
2021/08/01 12:19:20;;;;;;;4.45;1.60;;;23.70;99.90;;;;;;5041196;28;20029;-92
2021/08/01 12:21:46;;;;;;;6.05;1.50;;;23.60;99.90;;;;;;5041389;28;20021;-91
2021/08/01 12:24:34;;;;;;;3.60;1.42;;;24.10;99.90;;;;;;5040625;28;20025;-92
2021/08/01 12:27:02;;;;;;;3.33;1.40;;;23.60;99.90;;;;;;5041526;28;20029;-93
2021/08/01 12:29:36;;;;;;;3.47;1.20;;;25.10;99.90;;;;;;5040367;28;20036;-92
2021/08/01 12:32:16;;;;;;;2.40;1.23;;;26.10;99.90;;;;;;5041655;28;20044;-93
2021/08/01 12:34:42;;;;;;;5.28;1.20;;;27.00;99.90;;;;;;5041690;28;20033;-93
2021/08/01 12:37:08;;;;;;;2.65;1.48;;;27.50;99.90;;;;;;5039713;28;20017;-92
2021/08/01 12:39:43;;;;;;;1.98;1.25;;;27.50;99.90;;;;;;5039969;28;20051;-92
2021/08/01 12:42:09;;;;;;;2.50;1.17;;;27.20;99.90;;;;;;5040068;28;20029;-92
2021/08/01 12:44:35;;;;;;;4.30;1.27;;;27.40;99.90;;;;;;5041671;28;20036;-93
2021/08/01 12:47:07;;;;;;;2.72;1.20;;;28.10;99.90;;;;;;5052137;28;20033;-92
2021/08/01 12:49:34;;;;;;;2.80;1.30;;;27.40;99.90;;;;;;5049811;28;20057;-92
2021/08/01 12:52:00;;;;;;;4.68;1.35;;;27.00;99.90;;;;;;5047642;28;20001;-92
2021/08/01 12:54:26;;;;;;;2.20;1.15;;;27.00;99.90;;;;;;5042873;28;20109;-93
2021/08/01 12:57:08;;;;;;;6.22;1.25;;;27.90;99.90;;;;;;5040574;28;20025;-92